Time;durP1;ratioP1;P1;durP2;ratioP2;P2;SDS_P1;SDS_P2;PMS_P1;PMS_P2;Temp;Humidity;BMP_temperature;BMP_pressure;BME280_temperature;BME280_humidity;BME280_pressure;Samples;Min_cycle;Max_cycle;Signal;HPM_P1;HPM_P2
2022/10/20 00:01:07;;;;;;;14.38;6.80;;;7.80;99.90;;;;;;5135638;27;20051;-76
2022/10/20 00:03:33;;;;;;;13.43;6.38;;;7.80;99.90;;;;;;5118060;27;20066;-78
2022/10/20 00:06:13;;;;;;;17.95;7.25;;;7.80;99.90;;;;;;5137242;27;20098;-77
2022/10/20 00:08:40;;;;;;;13.80;6.53;;;7.80;99.90;;;;;;5135443;27;20136;-78
2022/10/20 00:11:07;;;;;;;11.63;6.32;;;7.70;99.90;;;;;;5135113;27;20055;-77
2022/10/20 00:13:33;;;;;;;15.48;5.90;;;7.70;99.90;;;;;;5135483;27;20111;-76
2022/10/20 00:15:59;;;;;;;16.27;6.32;;;7.70;99.90;;;;;;5135509;27;20047;-79
2022/10/20 00:18:27;;;;;;;15.25;6.18;;;7.70;99.90;;;;;;5116999;27;20047;-76
2022/10/20 00:20:54;;;;;;;14.50;7.13;;;7.70;99.90;;;;;;5136268;27;20062;-77
2022/10/20 00:23:20;;;;;;;16.15;6.30;;;7.70;99.90;;;;;;5133768;27;20043;-77
2022/10/20 00:25:46;;;;;;;15.57;6.57;;;7.60;99.90;;;;;;5135193;27;20043;-77
2022/10/20 00:28:13;;;;;;;13.63;6.50;;;7.60;99.90;;;;;;5116792;27;20144;-76
2022/10/20 00:30:39;;;;;;;14.48;6.75;;;7.60;99.90;;;;;;5134991;27;20062;-77
2022/10/20 00:33:05;;;;;;;18.63;6.90;;;7.60;99.90;;;;;;5135348;27;20414;-78
2022/10/20 00:35:32;;;;;;;12.68;6.10;;;7.60;99.90;;;;;;5118371;27;20058;-77
2022/10/20 00:37:58;;;;;;;15.63;7.10;;;7.60;99.90;;;;;;5134709;27;20099;-78
2022/10/20 00:40:25;;;;;;;15.57;6.53;;;7.60;99.90;;;;;;5135001;27;20047;-77
2022/10/20 00:42:51;;;;;;;12.55;6.60;;;7.50;99.90;;;;;;5134864;27;20062;-77
2022/10/20 00:45:20;;;;;;;12.05;6.55;;;7.50;99.90;;;;;;5133187;27;20050;-77
2022/10/20 00:47:54;;;;;;;11.48;6.07;;;7.50;99.90;;;;;;5118208;27;20047;-76
2022/10/20 00:50:21;;;;;;;10.23;5.63;;;7.50;99.90;;;;;;5116512;27;20090;-77
2022/10/20 00:52:48;;;;;;;12.63;5.95;;;7.50;99.90;;;;;;5134844;27;20043;-77
2022/10/20 00:55:19;;;;;;;12.05;5.53;;;7.50;99.90;;;;;;5134132;27;20051;-78
2022/10/20 00:57:49;;;;;;;11.85;6.28;;;7.50;99.90;;;;;;5134638;27;20051;-76
2022/10/20 01:00:15;;;;;;;9.85;5.65;;;7.50;99.90;;;;;;5134881;27;20054;-76
2022/10/20 01:02:42;;;;;;;11.23;5.65;;;7.40;99.90;;;;;;5100830;27;20043;-78
2022/10/20 01:05:09;;;;;;;13.90;6.65;;;7.50;99.90;;;;;;5116185;27;20141;-77
2022/10/20 01:07:35;;;;;;;11.60;6.10;;;7.50;99.90;;;;;;5134746;27;20483;-76
2022/10/20 01:10:02;;;;;;;14.70;6.13;;;7.50;99.90;;;;;;5115543;27;20097;-77
2022/10/20 01:12:37;;;;;;;14.52;6.47;;;7.50;99.90;;;;;;5132719;27;20051;-77
2022/10/20 01:15:08;;;;;;;;;;;7.50;99.90;;;;;;5099387;27;20061;-77
2022/10/20 01:17:55;;;;;;;12.70;5.72;;;7.40;99.90;;;;;;5135014;27;19977;-76
2022/10/20 01:20:54;;;;;;;14.85;5.25;;;7.40;99.90;;;;;;5115515;27;20051;-76
2022/10/20 01:23:35;;;;;;;13.13;6.18;;;7.40;99.90;;;;;;5134121;27;20104;-76
2022/10/20 01:26:19;;;;;;;13.55;6.03;;;7.30;99.90;;;;;;5115203;27;20108;-77
2022/10/20 01:28:51;;;;;;;14.50;6.13;;;7.30;99.90;;;;;;5133767;27;20047;-77
2022/10/20 01:31:26;;;;;;;15.13;6.90;;;7.30;99.90;;;;;;5134745;27;20096;-76
2022/10/20 01:34:41;;;;;;;11.00;5.25;;;7.30;99.90;;;;;;5119711;27;20087;-76
2022/10/20 01:37:17;;;;;;;13.97;5.73;;;7.30;99.90;;;;;;5116111;27;20054;-78
2022/10/20 01:39:51;;;;;;;13.80;6.10;;;7.20;99.90;;;;;;5133688;27;20090;-75
2022/10/20 01:42:22;;;;;;;11.65;6.80;;;7.30;99.90;;;;;;5133768;27;20055;-76
2022/10/20 01:44:50;;;;;;;15.60;6.82;;;7.20;99.90;;;;;;5117184;27;20108;-76
2022/10/20 01:47:19;;;;;;;11.18;5.70;;;7.30;99.90;;;;;;5114774;27;20491;-78
2022/10/20 01:49:47;;;;;;;9.57;5.40;;;7.20;99.90;;;;;;5133260;27;20089;-78
2022/10/20 01:52:13;;;;;;;10.02;5.65;;;7.20;99.90;;;;;;5133107;27;20055;-78
2022/10/20 01:54:39;;;;;;;12.23;6.68;;;7.20;99.90;;;;;;5132046;27;20073;-77
2022/10/20 01:57:23;;;;;;;14.25;5.72;;;7.20;99.90;;;;;;5133914;27;20055;-77
2022/10/20 02:00:10;;;;;;;20.92;6.97;;;7.20;99.90;;;;;;5116055;27;20103;-76
2022/10/20 02:03:09;;;;;;;15.68;5.85;;;7.20;99.90;;;;;;5133690;27;20410;-78
2022/10/20 02:05:44;;;;;;;11.38;6.43;;;7.10;99.90;;;;;;5134082;27;20066;-77
2022/10/20 02:08:35;;;;;;;9.88;5.50;;;7.10;99.90;;;;;;5133367;27;20391;-78
2022/10/20 02:11:04;;;;;;;14.77;6.03;;;7.10;99.90;;;;;;5133043;27;20138;-77
2022/10/20 02:13:31;;;;;;;11.32;6.43;;;7.10;99.90;;;;;;5116235;27;20428;-76
2022/10/20 02:16:00;;;;;;;13.77;6.00;;;7.00;99.90;;;;;;5114450;27;20092;-79
2022/10/20 02:18:34;;;;;;;13.82;5.90;;;7.00;99.90;;;;;;5132871;27;20494;-78
2022/10/20 02:21:02;;;;;;;13.38;5.80;;;7.00;99.90;;;;;;5114413;27;20513;-77
2022/10/20 02:23:32;;;;;;;13.65;6.63;;;7.00;99.90;;;;;;5114211;27;20059;-78
2022/10/20 02:26:00;;;;;;;11.57;6.07;;;7.00;99.90;;;;;;5132914;27;20402;-78
2022/10/20 02:28:27;;;;;;;11.20;6.07;;;7.00;99.90;;;;;;5132721;27;20126;-76
2022/10/20 02:30:55;;;;;;;16.25;6.32;;;6.90;99.90;;;;;;5132964;27;20130;-78
2022/10/20 02:33:22;;;;;;;17.77;6.22;;;6.90;99.90;;;;;;5113889;27;20055;-77
2022/10/20 02:35:56;;;;;;;15.90;6.70;;;6.90;99.90;;;;;;5114182;27;20054;-76
2022/10/20 02:38:22;;;;;;;14.05;6.38;;;6.90;99.90;;;;;;5132635;27;20256;-78
2022/10/20 02:40:48;;;;;;;17.60;7.20;;;6.80;99.90;;;;;;5134363;27;20070;-76
2022/10/20 02:43:14;;;;;;;14.10;6.25;;;6.80;99.90;;;;;;5098325;27;20083;-76
2022/10/20 02:45:40;;;;;;;16.25;6.32;;;6.80;99.90;;;;;;5131864;27;20162;-76
2022/10/20 02:48:08;;;;;;;13.52;5.95;;;6.80;99.90;;;;;;5113734;27;20498;-75
2022/10/20 02:50:35;;;;;;;11.93;5.72;;;6.80;99.90;;;;;;5132125;27;20050;-76
2022/10/20 02:53:02;;;;;;;10.15;5.75;;;6.80;99.90;;;;;;5116704;27;20051;-75
2022/10/20 02:55:28;;;;;;;13.77;6.20;;;6.70;99.90;;;;;;5132283;27;20520;-76
2022/10/20 02:57:54;;;;;;;15.40;6.35;;;6.70;99.90;;;;;;5113891;27;20047;-75
2022/10/20 03:00:20;;;;;;;15.70;6.53;;;6.70;99.90;;;;;;5114338;27;20055;-76
2022/10/20 03:02:47;;;;;;;15.65;6.53;;;6.70;99.90;;;;;;5130577;27;20051;-76
2022/10/20 03:05:13;;;;;;;11.20;6.10;;;6.70;99.90;;;;;;5114449;27;20109;-76
2022/10/20 03:07:39;;;;;;;12.25;5.47;;;6.70;99.90;;;;;;5114589;27;20130;-77
2022/10/20 03:10:05;;;;;;;10.50;5.95;;;6.70;99.90;;;;;;5113530;27;20134;-76
2022/10/20 03:12:31;;;;;;;13.98;6.70;;;6.70;99.90;;;;;;5132636;27;20039;-77
2022/10/20 03:14:57;;;;;;;13.80;6.63;;;6.70;99.90;;;;;;5113992;27;20057;-78
2022/10/20 03:17:23;;;;;;;11.88;6.70;;;6.60;99.90;;;;;;5132135;27;20047;-77
2022/10/20 03:19:49;;;;;;;13.10;6.55;;;6.60;99.90;;;;;;5114494;28;20047;-76
2022/10/20 03:22:15;;;;;;;12.27;6.82;;;6.60;99.90;;;;;;5114628;28;20057;-77
2022/10/20 03:24:41;;;;;;;13.57;7.25;;;6.60;99.90;;;;;;5113518;28;20403;-77
2022/10/20 03:27:06;;;;;;;13.18;6.65;;;6.60;99.90;;;;;;5131773;28;20039;-77
2022/10/20 03:29:32;;;;;;;10.20;5.93;;;6.60;99.90;;;;;;5113339;28;20051;-76
2022/10/20 03:31:58;;;;;;;14.57;6.30;;;6.60;99.90;;;;;;5113116;28;20128;-78
2022/10/20 03:34:24;;;;;;;16.73;7.82;;;6.60;99.90;;;;;;5132079;28;20114;-76
2022/10/20 03:36:50;;;;;;;14.40;6.82;;;6.60;99.90;;;;;;5132588;28;20140;-78
2022/10/20 03:39:16;;;;;;;10.57;6.65;;;6.60;99.90;;;;;;5116127;28;20135;-77
2022/10/20 03:41:42;;;;;;;15.50;6.70;;;6.50;99.90;;;;;;5113443;28;20163;-78
2022/10/20 03:44:09;;;;;;;11.40;7.00;;;6.50;99.90;;;;;;5131767;28;20058;-77
2022/10/20 03:46:35;;;;;;;15.18;7.05;;;6.50;99.90;;;;;;5112577;28;20138;-79
2022/10/20 03:49:02;;;;;;;13.82;7.15;;;6.50;99.90;;;;;;5131917;28;20138;-76
2022/10/20 03:51:28;;;;;;;14.80;6.97;;;6.50;99.90;;;;;;5113404;28;20047;-77
2022/10/20 03:53:54;;;;;;;14.18;6.97;;;6.50;99.90;;;;;;5117434;28;20043;-76
2022/10/20 03:56:20;;;;;;;15.98;7.32;;;6.50;99.90;;;;;;5131574;28;20473;-78
2022/10/20 03:58:47;;;;;;;15.57;8.48;;;6.50;99.90;;;;;;5131402;28;20057;-79
2022/10/20 04:01:15;;;;;;;13.35;7.45;;;6.50;99.90;;;;;;5113380;28;20059;-78
2022/10/20 04:03:42;;;;;;;13.60;6.93;;;6.50;99.90;;;;;;5113282;28;20111;-77
2022/10/20 04:06:08;;;;;;;13.30;7.18;;;6.50;99.90;;;;;;5115245;28;20398;-76
2022/10/20 04:08:34;;;;;;;14.23;7.93;;;6.50;99.90;;;;;;5131439;28;20138;-78
2022/10/20 04:11:00;;;;;;;14.15;7.57;;;6.50;99.90;;;;;;5114697;28;20138;-76
2022/10/20 04:13:26;;;;;;;13.73;7.47;;;6.50;99.90;;;;;;5132084;28;20443;-77
2022/10/20 04:15:51;;;;;;;14.85;7.28;;;6.50;99.90;;;;;;5113401;28;20104;-78
2022/10/20 04:18:17;;;;;;;18.92;7.93;;;6.50;99.90;;;;;;5132514;28;20174;-77
2022/10/20 04:20:43;;;;;;;20.33;8.30;;;6.50;99.90;;;;;;5116110;28;20051;-75
2022/10/20 04:23:09;;;;;;;13.75;8.18;;;6.50;99.90;;;;;;5114437;28;20560;-77
2022/10/20 04:25:39;;;;;;;18.20;8.43;;;6.50;99.90;;;;;;5135747;27;20443;-76
2022/10/20 04:28:05;;;;;;;14.13;8.23;;;6.50;99.90;;;;;;5117682;27;20043;-76
2022/10/20 04:30:31;;;;;;;13.55;9.88;;;6.40;99.90;;;;;;5135739;27;20062;-74
2022/10/20 04:32:57;;;;;;;18.48;8.30;;;6.50;99.90;;;;;;5116850;27;20482;-75
2022/10/20 04:35:23;;;;;;;17.88;8.32;;;6.40;99.90;;;;;;5116510;27;20051;-75
2022/10/20 04:37:49;;;;;;;16.00;8.93;;;6.40;99.90;;;;;;5135038;27;20443;-75
2022/10/20 04:40:15;;;;;;;15.32;9.07;;;6.40;99.90;;;;;;5117857;27;20047;-75
2022/10/20 04:42:40;;;;;;;16.70;8.98;;;6.40;99.90;;;;;;5135238;27;20047;-77
2022/10/20 04:45:07;;;;;;;14.77;8.90;;;6.40;99.90;;;;;;5116811;27;20069;-77
2022/10/20 04:47:33;;;;;;;13.93;8.77;;;6.40;99.90;;;;;;5112541;28;20056;-77
2022/10/20 04:49:59;;;;;;;15.98;8.55;;;6.40;99.90;;;;;;5112930;28;20062;-74
2022/10/20 04:52:27;;;;;;;14.45;8.10;;;6.40;99.90;;;;;;5113756;28;20777;-75
2022/10/20 04:54:52;;;;;;;17.23;9.75;;;6.40;99.90;;;;;;5113975;27;20052;-74
2022/10/20 04:57:18;;;;;;;14.35;8.77;;;6.40;99.90;;;;;;5113829;28;20047;-75
2022/10/20 04:59:45;;;;;;;15.60;9.32;;;6.40;99.90;;;;;;5112861;28;20514;-74
2022/10/20 05:02:10;;;;;;;13.90;7.88;;;6.40;99.90;;;;;;5113876;28;20491;-76
2022/10/20 05:04:37;;;;;;;22.77;10.48;;;6.40;99.90;;;;;;5114127;28;20127;-76
2022/10/20 05:07:03;;;;;;;16.55;9.98;;;6.40;99.90;;;;;;5116133;28;20051;-76
2022/10/20 05:09:30;;;;;;;17.80;9.73;;;6.40;99.90;;;;;;5095554;28;20104;-75
2022/10/20 05:11:56;;;;;;;17.00;9.70;;;6.40;99.90;;;;;;5095842;28;20051;-76
2022/10/20 05:14:22;;;;;;;17.60;9.80;;;6.40;99.90;;;;;;5095574;28;20054;-77
2022/10/20 05:16:48;;;;;;;19.17;10.55;;;6.40;99.90;;;;;;5129216;27;20055;-76
2022/10/20 05:19:14;;;;;;;19.10;10.38;;;6.40;99.90;;;;;;5111895;28;20056;-75
2022/10/20 05:21:40;;;;;;;21.63;10.85;;;6.40;99.90;;;;;;5112381;28;20126;-76
2022/10/20 05:24:06;;;;;;;20.75;10.15;;;6.40;99.90;;;;;;5115011;28;20123;-78
2022/10/20 05:26:36;;;;;;;19.30;11.68;;;6.40;99.90;;;;;;5112133;28;20056;-78
2022/10/20 05:29:04;;;;;;;17.83;9.38;;;6.40;99.90;;;;;;5112287;28;20050;-76
2022/10/20 05:31:30;;;;;;;19.80;12.07;;;6.30;99.90;;;;;;5112950;28;20055;-76
2022/10/20 05:33:57;;;;;;;17.73;11.05;;;6.40;99.90;;;;;;5113437;27;20093;-76
2022/10/20 05:36:25;;;;;;;16.25;10.82;;;6.30;99.90;;;;;;5112255;28;20063;-76
2022/10/20 05:38:54;;;;;;;16.92;10.32;;;6.30;99.90;;;;;;5114171;28;20113;-76
2022/10/20 05:41:25;;;;;;;18.05;9.90;;;6.30;99.90;;;;;;5114934;28;20056;-76
2022/10/20 05:43:53;;;;;;;17.58;10.68;;;6.30;99.90;;;;;;5113299;28;20448;-76
2022/10/20 05:46:19;;;;;;;18.50;10.68;;;6.30;99.90;;;;;;5111362;28;20090;-78
2022/10/20 05:48:46;;;;;;;20.42;11.52;;;6.20;99.90;;;;;;5112724;28;20094;-78
2022/10/20 05:51:17;;;;;;;17.10;10.82;;;6.30;99.90;;;;;;5112822;28;20047;-78
2022/10/20 05:53:45;;;;;;;21.10;9.68;;;6.30;99.90;;;;;;5113700;28;20055;-78
2022/10/20 05:56:14;;;;;;;17.67;10.50;;;6.20;99.90;;;;;;5111584;28;20052;-78
2022/10/20 05:58:41;;;;;;;19.10;11.32;;;6.30;99.90;;;;;;5111337;28;20104;-78
2022/10/20 06:01:10;;;;;;;18.25;11.52;;;6.30;99.90;;;;;;5112745;28;20044;-77
2022/10/20 06:03:36;;;;;;;18.00;10.27;;;6.20;99.90;;;;;;5112227;28;20414;-77
2022/10/20 06:06:04;;;;;;;20.65;11.90;;;6.20;99.90;;;;;;5111513;28;20443;-77
2022/10/20 06:08:33;;;;;;;23.70;11.48;;;6.20;99.90;;;;;;5111225;28;20048;-76
2022/10/20 06:11:08;;;;;;;21.88;11.15;;;6.20;99.90;;;;;;5113881;28;20399;-77
2022/10/20 06:13:34;;;;;;;20.48;12.05;;;6.20;99.90;;;;;;5094341;28;20472;-77
2022/10/20 06:16:12;;;;;;;19.20;11.43;;;6.20;99.90;;;;;;5094319;28;20044;-77
2022/10/20 06:18:39;;;;;;;28.98;12.65;;;6.20;99.90;;;;;;5094618;28;20479;-77
2022/10/20 06:21:11;;;;;;;20.55;11.90;;;6.20;99.90;;;;;;5112542;28;20048;-77
2022/10/20 06:23:37;;;;;;;19.25;11.25;;;6.20;99.90;;;;;;5113186;28;20412;-77
2022/10/20 06:26:06;;;;;;;21.95;12.23;;;6.20;99.90;;;;;;5112693;28;20051;-77
2022/10/20 06:28:34;;;;;;;21.45;12.20;;;6.20;99.90;;;;;;5112492;28;20079;-76
2022/10/20 06:31:00;;;;;;;21.20;11.82;;;6.30;99.90;;;;;;5111908;27;20647;-77
2022/10/20 06:33:29;;;;;;;21.90;13.60;;;6.30;99.90;;;;;;5110841;28;20134;-77
2022/10/20 06:36:00;;;;;;;20.02;12.02;;;6.30;99.90;;;;;;5112169;28;20056;-77
2022/10/20 06:38:26;;;;;;;23.85;12.75;;;6.30;99.90;;;;;;5111780;28;20065;-78
2022/10/20 06:40:52;;;;;;;21.90;12.35;;;6.30;99.90;;;;;;5094004;28;20047;-76
2022/10/20 06:43:18;;;;;;;21.23;11.70;;;6.40;99.90;;;;;;5112239;28;20051;-77
2022/10/20 06:45:54;;;;;;;23.55;13.75;;;6.40;99.90;;;;;;5111826;27;20507;-78
2022/10/20 06:48:20;;;;;;;28.13;14.57;;;6.40;99.90;;;;;;5132021;27;20124;-78
2022/10/20 06:50:46;;;;;;;31.38;17.77;;;6.40;99.90;;;;;;5113682;27;20051;-77
2022/10/20 06:53:12;;;;;;;37.00;21.40;;;6.50;99.90;;;;;;5134234;27;20505;-77
2022/10/20 06:55:38;;;;;;;33.97;20.65;;;6.50;99.90;;;;;;5132258;27;20162;-77
2022/10/20 06:58:04;;;;;;;30.92;19.60;;;6.50;99.90;;;;;;5132436;27;20125;-79
2022/10/20 07:00:30;;;;;;;26.25;16.17;;;6.50;99.90;;;;;;5096587;27;20094;-78
2022/10/20 07:02:56;;;;;;;24.40;13.98;;;6.50;99.90;;;;;;5131732;27;20070;-78
2022/10/20 07:05:22;;;;;;;22.25;12.93;;;6.60;99.90;;;;;;5096589;27;20108;-78
2022/10/20 07:07:51;;;;;;;24.88;13.52;;;6.60;99.90;;;;;;5135297;27;20373;-76
2022/10/20 07:10:17;;;;;;;21.88;12.82;;;6.60;99.90;;;;;;5113421;28;20054;-77
2022/10/20 07:12:43;;;;;;;22.95;13.80;;;6.70;99.90;;;;;;5132367;27;20052;-77
2022/10/20 07:15:09;;;;;;;18.23;12.00;;;6.70;99.90;;;;;;5113264;27;20047;-78
2022/10/20 07:17:35;;;;;;;20.88;13.80;;;6.70;99.90;;;;;;5132276;27;20506;-78
2022/10/20 07:20:01;;;;;;;23.60;13.77;;;6.80;99.90;;;;;;5096419;28;20094;-76
2022/10/20 07:22:27;;;;;;;21.67;12.85;;;6.80;99.90;;;;;;5113183;27;20111;-76
2022/10/20 07:24:53;;;;;;;21.90;13.80;;;6.80;99.90;;;;;;5113537;28;20119;-76
2022/10/20 07:27:19;;;;;;;24.13;13.15;;;6.80;99.90;;;;;;5133510;28;20043;-77
2022/10/20 07:29:45;;;;;;;21.42;13.77;;;6.90;99.90;;;;;;5131890;28;20096;-77
2022/10/20 07:32:11;;;;;;;26.60;14.32;;;6.90;99.90;;;;;;5132104;28;20051;-78
2022/10/20 07:34:37;;;;;;;19.80;12.52;;;6.90;99.90;;;;;;5113647;28;20039;-77
2022/10/20 07:37:03;;;;;;;19.95;12.60;;;6.90;99.90;;;;;;5113355;28;20495;-76
2022/10/20 07:39:28;;;;;;;22.70;12.35;;;7.00;99.90;;;;;;5113328;28;20082;-78
2022/10/20 07:41:54;;;;;;;21.83;12.70;;;7.00;99.90;;;;;;5132708;28;20094;-77
2022/10/20 07:44:21;;;;;;;21.42;12.68;;;7.00;99.90;;;;;;5113475;28;20366;-78
2022/10/20 07:46:47;;;;;;;19.70;12.90;;;7.10;99.90;;;;;;5131557;28;20463;-78
2022/10/20 07:49:13;;;;;;;18.27;11.90;;;7.10;99.90;;;;;;5113214;28;20055;-77
2022/10/20 07:51:39;;;;;;;25.77;15.18;;;7.20;99.90;;;;;;5113263;28;20402;-75
2022/10/20 07:54:07;;;;;;;21.25;12.50;;;7.20;99.90;;;;;;5131739;28;20043;-76
2022/10/20 07:56:36;;;;;;;22.38;13.15;;;7.20;99.90;;;;;;5112850;28;20091;-77
2022/10/20 07:59:03;;;;;;;19.00;11.65;;;7.20;99.90;;;;;;5116340;27;20079;-76
2022/10/20 08:01:29;;;;;;;23.55;14.35;;;7.30;99.90;;;;;;5117773;27;20498;-76
2022/10/20 08:03:55;;;;;;;22.60;12.57;;;7.40;99.90;;;;;;5136213;27;20459;-78
2022/10/20 08:06:22;;;;;;;22.92;13.27;;;7.40;99.90;;;;;;5135904;27;20387;-76
2022/10/20 08:08:48;;;;;;;18.70;12.02;;;7.50;99.90;;;;;;5099599;27;20087;-76
2022/10/20 08:11:14;;;;;;;22.05;12.27;;;7.50;99.90;;;;;;5135215;27;20066;-79
2022/10/20 08:13:41;;;;;;;23.52;13.95;;;7.50;99.90;;;;;;5135504;27;20039;-76
2022/10/20 08:16:09;;;;;;;22.02;12.15;;;7.60;99.90;;;;;;5137402;27;20110;-77
2022/10/20 08:18:36;;;;;;;20.15;11.75;;;7.60;99.90;;;;;;5135852;27;20047;-78
2022/10/20 08:21:17;;;;;;;25.13;12.93;;;7.60;99.90;;;;;;5116567;27;20047;-76
2022/10/20 08:23:47;;;;;;;23.90;11.98;;;7.70;99.90;;;;;;5116436;27;20051;-77
2022/10/20 08:26:21;;;;;;;22.65;12.55;;;7.80;99.90;;;;;;5116415;27;20051;-77
2022/10/20 08:28:49;;;;;;;17.83;12.27;;;7.80;99.90;;;;;;5118003;27;20054;-75
2022/10/20 08:31:17;;;;;;;20.05;12.70;;;7.90;99.90;;;;;;5134884;27;20395;-75
2022/10/20 08:33:42;;;;;;;20.33;11.65;;;7.90;99.90;;;;;;5135049;27;20046;-76
2022/10/20 08:36:13;;;;;;;20.77;12.73;;;8.00;99.90;;;;;;5135120;27;20050;-76
2022/10/20 08:38:40;;;;;;;21.05;11.45;;;8.00;99.90;;;;;;5116814;27;20391;-77
2022/10/20 08:41:18;;;;;;;17.88;11.57;;;8.10;99.90;;;;;;5116392;27;20470;-75
2022/10/20 08:43:46;;;;;;;22.73;13.15;;;8.10;99.90;;;;;;5116962;27;20047;-77
2022/10/20 08:46:15;;;;;;;19.98;11.65;;;8.20;99.90;;;;;;5135649;27;20051;-76
2022/10/20 08:48:43;;;;;;;21.15;11.60;;;8.20;99.90;;;;;;5134704;27;20055;-76
2022/10/20 08:51:20;;;;;;;16.05;11.55;;;8.30;99.90;;;;;;5134296;27;20050;-78
2022/10/20 08:53:48;;;;;;;19.85;12.15;;;8.40;99.90;;;;;;5115704;27;20062;-76
2022/10/20 08:56:15;;;;;;;18.23;11.15;;;8.40;99.90;;;;;;5115937;27;20051;-76
2022/10/20 08:58:43;;;;;;;16.80;11.50;;;8.50;99.90;;;;;;5135325;27;20514;-77
2022/10/20 09:01:25;;;;;;;22.27;11.18;;;8.60;99.90;;;;;;5115902;27;20051;-78
2022/10/20 09:04:02;;;;;;;15.77;10.48;;;8.60;99.90;;;;;;5134571;27;20051;-78
2022/10/20 09:06:28;;;;;;;17.83;11.88;;;8.70;99.90;;;;;;5134451;27;20043;-78
2022/10/20 09:08:55;;;;;;;18.08;11.00;;;8.80;99.90;;;;;;5115893;27;20180;-76
2022/10/20 09:11:38;;;;;;;16.05;10.05;;;8.90;99.90;;;;;;5134144;27;20062;-76
2022/10/20 09:14:03;;;;;;;16.48;11.50;;;8.90;99.90;;;;;;5135101;27;20066;-77
2022/10/20 09:16:36;;;;;;;16.58;11.02;;;9.00;99.90;;;;;;5115937;27;20043;-75
2022/10/20 09:19:14;;;;;;;16.52;10.32;;;9.10;99.90;;;;;;5115818;27;20455;-76
2022/10/20 09:21:42;;;;;;;18.38;10.70;;;9.20;99.90;;;;;;5115684;27;20107;-76
2022/10/20 09:24:11;;;;;;;16.73;10.18;;;9.30;99.90;;;;;;5134001;27;20039;-75
2022/10/20 09:26:49;;;;;;;17.98;10.18;;;9.40;99.90;;;;;;5135216;27;20059;-76
2022/10/20 09:29:18;;;;;;;16.10;10.48;;;9.40;99.90;;;;;;5133875;27;20096;-76
2022/10/20 09:31:53;;;;;;;15.13;9.25;;;9.60;99.90;;;;;;5133822;27;20391;-77
2022/10/20 09:34:19;;;;;;;;;;;9.60;99.90;;;;;;5098997;27;20055;-76
2022/10/20 09:36:47;;;;;;;14.35;8.98;;;9.70;99.90;;;;;;5114980;27;20499;-76
2022/10/20 09:39:22;;;;;;;14.80;9.23;;;9.80;99.90;;;;;;5115191;27;20051;-76
2022/10/20 09:41:49;;;;;;;13.98;8.98;;;9.90;99.90;;;;;;5116193;27;20103;-75
2022/10/20 09:44:22;;;;;;;14.63;8.50;;;10.00;99.90;;;;;;5115761;27;20133;-78
2022/10/20 09:46:51;;;;;;;15.55;9.82;;;10.10;99.90;;;;;;5114974;27;20078;-76
2022/10/20 09:49:24;;;;;;;16.80;9.98;;;10.10;99.90;;;;;;5133341;27;20498;-76
2022/10/20 09:51:52;;;;;;;13.20;8.75;;;10.20;99.90;;;;;;5114720;27;20053;-76
2022/10/20 09:54:21;;;;;;;14.10;9.30;;;10.30;99.90;;;;;;5081133;27;20223;-77
2022/10/20 09:56:48;;;;;;;12.73;8.40;;;10.30;99.90;;;;;;5115131;27;20078;-76
2022/10/20 09:59:32;;;;;;;14.50;9.43;;;10.40;99.90;;;;;;5134944;27;20051;-76
2022/10/20 10:02:21;;;;;;;13.93;8.32;;;10.50;99.90;;;;;;5134069;27;20061;-76
2022/10/20 10:04:52;;;;;;;14.30;8.65;;;10.60;99.90;;;;;;5132465;27;20051;-76
2022/10/20 10:07:21;;;;;;;12.25;9.25;;;10.60;99.90;;;;;;5132866;27;20055;-76
2022/10/20 10:10:15;;;;;;;12.73;8.95;;;10.70;99.90;;;;;;5132869;27;20051;-76
2022/10/20 10:12:54;;;;;;;18.67;9.03;;;10.80;99.90;;;;;;5127921;27;20047;-76
2022/10/20 10:15:46;;;;;;;13.45;9.07;;;10.90;99.90;;;;;;5100776;27;20387;-76
2022/10/20 10:18:21;;;;;;;14.40;8.45;;;11.10;99.90;;;;;;5130873;27;20134;-77
2022/10/20 10:20:58;;;;;;;11.32;7.68;;;11.10;99.90;;;;;;5114683;27;20127;-78
2022/10/20 10:23:30;;;;;;;12.30;8.35;;;11.20;99.90;;;;;;5097890;27;20050;-77
2022/10/20 10:25:56;;;;;;;12.77;7.93;;;11.30;99.90;;;;;;5114046;27;20055;-77
2022/10/20 10:28:25;;;;;;;12.02;8.00;;;11.40;99.90;;;;;;5133312;27;20115;-76
2022/10/20 10:31:07;;;;;;;11.52;7.53;;;11.50;99.90;;;;;;5115392;27;20403;-79
2022/10/20 10:33:34;;;;;;;13.60;8.18;;;11.60;99.90;;;;;;5114190;27;20058;-77
2022/10/20 10:36:13;;;;;;;15.63;8.27;;;11.50;99.90;;;;;;5114144;27;20042;-76
2022/10/20 10:38:39;;;;;;;10.68;7.75;;;11.60;99.90;;;;;;5114454;27;20086;-77
2022/10/20 10:41:23;;;;;;;13.00;7.65;;;11.70;99.90;;;;;;5132618;27;20043;-77
2022/10/20 10:44:09;;;;;;;12.40;7.50;;;11.70;99.90;;;;;;5097483;27;20047;-76
2022/10/20 10:46:36;;;;;;;13.98;7.00;;;11.70;99.90;;;;;;5133203;27;20321;-77
2022/10/20 10:49:23;;;;;;;15.15;7.05;;;11.80;99.90;;;;;;5114368;27;20047;-76
2022/10/20 10:51:58;;;;;;;11.20;7.65;;;12.00;99.90;;;;;;5132256;27;20104;-78
2022/10/20 10:54:55;;;;;;;15.77;8.27;;;12.20;99.90;;;;;;5114186;27;20082;-78
2022/10/20 10:57:31;;;;;;;20.17;7.80;;;12.50;99.90;;;;;;5114002;27;20416;-77
2022/10/20 11:00:06;;;;;;;13.70;8.05;;;12.60;99.90;;;;;;5132774;27;20178;-76
2022/10/20 11:02:59;;;;;;;13.38;7.75;;;12.70;99.90;;;;;;5133111;27;20051;-76
2022/10/20 11:06:05;;;;;;;14.20;7.80;;;12.80;99.90;;;;;;5113489;27;20516;-78
2022/10/20 11:09:02;;;;;;;12.48;7.40;;;12.70;99.90;;;;;;5090921;27;20096;-76
2022/10/20 11:11:39;;;;;;;15.30;8.18;;;13.00;99.90;;;;;;5097361;27;20457;-78
2022/10/20 11:14:26;;;;;;;11.25;7.57;;;13.10;99.90;;;;;;5132354;27;20478;-78
2022/10/20 11:17:29;;;;;;;10.40;7.03;;;13.30;99.90;;;;;;5115059;27;20079;-77
2022/10/20 11:20:20;;;;;;;14.45;7.82;;;13.50;99.90;;;;;;5113680;28;20055;-76
2022/10/20 11:23:04;;;;;;;9.68;6.60;;;13.70;99.90;;;;;;5132252;27;20047;-78
2022/10/20 11:25:52;;;;;;;13.80;7.37;;;13.60;99.90;;;;;;5131927;27;20146;-77
2022/10/20 11:28:35;;;;;;;11.82;7.28;;;13.50;99.90;;;;;;5132247;28;20277;-77
2022/10/20 11:31:03;;;;;;;11.50;6.78;;;13.40;99.90;;;;;;5132451;28;20498;-77
2022/10/20 11:33:44;;;;;;;10.02;6.78;;;13.30;99.90;;;;;;5134668;27;20039;-77
2022/10/20 11:36:17;;;;;;;10.38;6.57;;;13.30;99.90;;;;;;5136809;27;20107;-79
2022/10/20 11:38:54;;;;;;;15.68;6.95;;;13.30;99.90;;;;;;5137018;27;20086;-77
2022/10/20 11:41:48;;;;;;;12.80;7.53;;;13.30;99.90;;;;;;5118205;27;20039;-78
2022/10/20 11:44:14;;;;;;;9.30;6.40;;;13.50;99.90;;;;;;5116619;27;20077;-76
2022/10/20 11:46:39;;;;;;;13.13;7.20;;;13.60;99.90;;;;;;5136231;27;20059;-76
2022/10/20 11:49:06;;;;;;;11.00;7.18;;;13.80;99.90;;;;;;5137884;27;20088;-76
2022/10/20 11:51:32;;;;;;;12.52;7.43;;;13.90;99.90;;;;;;5135827;27;20099;-76
2022/10/20 11:54:01;;;;;;;12.35;7.05;;;13.80;99.90;;;;;;5136105;27;20394;-76
2022/10/20 11:56:45;;;;;;;12.93;7.75;;;13.80;99.90;;;;;;5116836;27;20047;-77
2022/10/20 11:59:28;;;;;;;11.82;6.78;;;13.70;99.90;;;;;;5135612;27;20051;-78
2022/10/20 12:02:13;;;;;;;13.18;6.88;;;13.60;99.90;;;;;;5117887;27;20039;-76
2022/10/20 12:05:13;;;;;;;10.75;6.80;;;13.40;99.90;;;;;;5136050;27;20043;-77
2022/10/20 12:08:20;;;;;;;11.55;6.85;;;13.40;99.90;;;;;;5117292;27;20050;-76
2022/10/20 12:10:55;;;;;;;11.57;7.28;;;13.30;99.90;;;;;;5116985;27;20051;-77
2022/10/20 12:13:32;;;;;;;10.90;6.38;;;13.30;99.90;;;;;;5117278;27;20055;-76
2022/10/20 12:15:58;;;;;;;14.20;7.35;;;13.30;99.90;;;;;;5117553;27;20133;-76
2022/10/20 12:18:30;;;;;;;11.25;6.63;;;13.20;99.90;;;;;;5137055;27;20451;-76
2022/10/20 12:21:05;;;;;;;11.77;7.35;;;13.20;99.90;;;;;;5135565;27;20051;-75
2022/10/20 12:23:47;;;;;;;10.75;6.72;;;13.10;99.90;;;;;;5132255;27;20060;-75
2022/10/20 12:26:28;;;;;;;13.57;7.18;;;13.10;99.90;;;;;;5113750;27;20121;-76
2022/10/20 12:29:29;;;;;;;12.35;7.30;;;13.10;99.90;;;;;;5135079;27;20047;-76
2022/10/20 12:32:23;;;;;;;18.65;7.68;;;13.10;99.90;;;;;;5119774;27;20070;-77
2022/10/20 12:34:55;;;;;;;10.80;6.63;;;13.00;99.90;;;;;;5116536;27;20059;-76
2022/10/20 12:37:24;;;;;;;10.70;6.82;;;13.00;99.90;;;;;;5116490;27;20103;-76
2022/10/20 12:39:53;;;;;;;12.38;7.65;;;12.90;99.90;;;;;;5134985;27;20047;-76
2022/10/20 12:42:35;;;;;;;11.98;6.97;;;12.80;99.90;;;;;;5116313;27;20410;-77
2022/10/20 12:45:18;;;;;;;12.50;6.88;;;12.80;99.90;;;;;;5117860;27;20482;-77
2022/10/20 12:47:54;;;;;;;11.35;6.65;;;12.80;99.90;;;;;;5134485;27;20047;-75
2022/10/20 12:50:23;;;;;;;11.48;7.10;;;12.80;99.90;;;;;;5115948;27;20051;-76
2022/10/20 12:52:52;;;;;;;10.77;7.28;;;12.80;99.90;;;;;;5115965;27;20133;-77
2022/10/20 12:55:29;;;;;;;13.35;7.22;;;12.70;99.90;;;;;;5116228;27;20062;-77
2022/10/20 12:58:17;;;;;;;11.23;7.30;;;12.70;99.90;;;;;;5115949;27;20039;-78
2022/10/20 13:00:46;;;;;;;10.65;7.10;;;12.60;99.90;;;;;;5116210;27;20840;-77
2022/10/20 13:03:30;;;;;;;11.27;7.53;;;12.60;99.90;;;;;;5134114;27;20812;-76